Terminal Aerodrome Forecast
Issued by NWS Newport/Morehead City, NC

Home | Current Version | Previous Version | Graphics & Text | Print | Product List | Glossary On
Versions: 1 2 3 4 5 6 7 8 9 10 11 12 13 14
000
FTUS42 KMHX 230500
TAFEWN
TAF
KEWN 230522Z 2306/2406 24004KT P6SM OVC100
     FM230900 32010KT P6SM SCT100
     FM231400 32012G20KT P6SM SKC
     FM232300 34005KT P6SM SKC=

USA.gov is the U.S. government's official web portal to all federal, state and local government web resources and services.